Terminal Aerodrome Forecast
Issued by NWS Spokane, WA

Home | Current Version | Previous Version | Text Only | Print | Product List | Glossary On
Versions: 1 2 3 4 5 6 7 8 9 10 11 12
000
FTUS46 KOTX 260520
TAFEAT
TAF
KEAT 260520Z 2606/2706 29019G25KT P6SM SCT120 SCT200
     FM261200 30018G28KT P6SM SKC
     FM262100 30014G23KT P6SM SKC
     FM270300 30016G25KT P6SM FEW250=

USA.gov is the U.S. government's official web portal to all federal, state and local government web resources and services.